createdAt,value
2023-04-12T00:00:02.255Z,1.69
2023-04-12T00:02:35.922Z,1.74
2023-04-12T00:05:04.582Z,1.72
2023-04-12T00:07:32.842Z,1.69
2023-04-12T00:10:00.920Z,1.63
2023-04-12T00:12:28.938Z,1.59
2023-04-12T00:14:58.491Z,1.47
2023-04-12T00:17:26.762Z,1.47
2023-04-12T00:19:54.997Z,1.39
2023-04-12T00:22:23.040Z,1.35
2023-04-12T00:24:51.239Z,1.28
2023-04-12T00:27:19.369Z,1.16
2023-04-12T00:29:47.465Z,1.13
2023-04-12T00:32:19.336Z,1.10
2023-04-12T00:34:47.736Z,0.99
2023-04-12T00:37:15.867Z,0.98
2023-04-12T00:39:44.375Z,0.96
2023-04-12T00:42:12.572Z,0.92
2023-04-12T00:44:40.743Z,0.89
2023-04-12T00:47:09.845Z,0.82
2023-04-12T00:49:39.625Z,0.76
2023-04-12T00:52:10.240Z,0.76
2023-04-12T00:54:38.711Z,0.75
2023-04-12T00:57:07.182Z,0.71
2023-04-12T00:59:35.382Z,0.69
2023-04-12T01:02:03.930Z,0.68
2023-04-12T01:04:32.266Z,0.71
2023-04-12T01:07:20.769Z,0.68
2023-04-12T01:09:54.837Z,0.75
2023-04-12T01:12:32.879Z,0.75
2023-04-12T01:15:11.284Z,0.84
2023-04-12T01:17:45.600Z,0.83
2023-04-12T01:20:17.006Z,0.84
2023-04-12T01:23:00.781Z,0.91
2023-04-12T01:25:39.498Z,1.02
2023-04-12T01:28:11.097Z,1.09
2023-04-12T01:30:39.771Z,1.18
2023-04-12T01:33:11.985Z,1.19
2023-04-12T01:35:41.410Z,1.25
2023-04-12T01:38:10.998Z,1.34
2023-04-12T01:40:40.888Z,1.30
2023-04-12T01:43:11.542Z,1.31
2023-04-12T01:45:40.468Z,1.36
2023-04-12T01:48:09.845Z,1.40
2023-04-12T01:50:41.888Z,1.33
2023-04-12T01:53:14.186Z,1.36
2023-04-12T01:55:45.925Z,1.31
2023-04-12T01:58:16.558Z,1.19
2023-04-12T02:00:46.179Z,1.15
2023-04-12T02:03:15.131Z,1.01
2023-04-12T02:05:43.600Z,0.98
2023-04-12T02:08:12.556Z,0.94
2023-04-12T02:10:41.220Z,0.86
2023-04-12T02:13:09.400Z,0.83
2023-04-12T02:15:40.640Z,0.80
2023-04-12T02:18:08.740Z,0.70
2023-04-12T02:20:36.929Z,0.67
2023-04-12T02:23:05.093Z,0.72
2023-04-12T02:25:33.439Z,0.74
2023-04-12T02:28:02.518Z,0.75
2023-04-12T02:30:30.995Z,0.78
2023-04-12T02:33:02.440Z,0.83
2023-04-12T02:35:35.185Z,0.86
2023-04-12T02:38:10.169Z,0.92
2023-04-12T02:40:42.331Z,0.97
2023-04-12T02:43:14.688Z,1.03
2023-04-12T02:45:46.621Z,1.05
2023-04-12T02:48:16.928Z,1.05
2023-04-12T02:50:45.946Z,0.97
2023-04-12T02:53:17.800Z,0.93
2023-04-12T02:55:51.191Z,0.86
2023-04-12T02:58:24.504Z,0.90
2023-04-12T03:00:53.890Z,0.84
2023-04-12T03:03:32.270Z,0.85
2023-04-12T03:06:09.928Z,0.83
2023-04-12T03:08:39.911Z,0.73
2023-04-12T03:11:08.798Z,0.68
2023-04-12T03:13:36.985Z,0.61
2023-04-12T03:16:21.692Z,0.64
2023-04-12T03:18:53.303Z,0.64
2023-04-12T03:21:24.256Z,0.69
2023-04-12T03:23:52.970Z,0.69
2023-04-12T03:26:21.533Z,0.72
2023-04-12T03:29:00.731Z,0.73
2023-04-12T03:31:31.550Z,0.75
2023-04-12T03:34:06.931Z,0.77
2023-04-12T03:36:35.820Z,0.77
2023-04-12T03:39:11.704Z,0.74
2023-04-12T03:41:41.115Z,0.74
2023-04-12T03:44:09.480Z,0.71
2023-04-12T03:46:37.674Z,0.73
2023-04-12T03:49:11.602Z,0.74
2023-04-12T03:51:42.881Z,0.78
2023-04-12T03:54:11.749Z,0.80
2023-04-12T03:56:51.110Z,0.84
2023-04-12T03:59:26.053Z,0.81
2023-04-12T04:01:55.385Z,0.86
2023-04-12T04:04:26.313Z,0.86
2023-04-12T04:06:58.915Z,0.84
2023-04-12T04:09:29.241Z,0.86
2023-04-12T04:11:57.604Z,0.91
2023-04-12T04:14:27.852Z,0.93
2023-04-12T04:16:56.631Z,0.93
2023-04-12T04:19:26.298Z,0.96
2023-04-12T04:21:56.413Z,0.99
2023-04-12T04:24:25.236Z,0.97
2023-04-12T04:26:56.449Z,0.96
2023-04-12T04:29:29.252Z,0.97
2023-04-12T04:31:58.099Z,1.00
2023-04-12T04:34:29.508Z,1.03
2023-04-12T04:37:08.124Z,1.01
2023-04-12T04:39:36.574Z,1.09
2023-04-12T04:42:06.800Z,1.12
2023-04-12T04:44:46.246Z,1.17
2023-04-12T04:47:14.598Z,1.23
2023-04-12T04:49:44.433Z,1.27
2023-04-12T04:52:23.900Z,1.36
2023-04-12T04:54:57.826Z,1.42
2023-04-12T04:57:28.159Z,1.49
2023-04-12T04:59:57.738Z,1.56
2023-04-12T05:02:26.332Z,1.61
2023-04-12T05:04:57.016Z,1.65
2023-04-12T05:07:27.672Z,1.70
2023-04-12T05:09:56.004Z,1.79
2023-04-12T05:12:24.859Z,1.87
2023-04-12T05:15:08.826Z,1.92
2023-04-12T05:17:41.140Z,1.98
2023-04-12T05:20:11.983Z,1.98
2023-04-12T05:22:40.525Z,2.05
2023-04-12T05:25:08.867Z,2.03
2023-04-12T05:27:43.513Z,2.01
2023-04-12T05:30:16.403Z,2.01
2023-04-12T05:32:45.542Z,1.97
2023-04-12T05:35:16.751Z,1.94
2023-04-12T05:38:01.645Z,1.93
2023-04-12T05:40:32.888Z,1.94
2023-04-12T05:43:01.461Z,1.84
2023-04-12T05:45:32.307Z,1.85
2023-04-12T05:48:01.280Z,1.80
2023-04-12T05:50:31.117Z,1.77
2023-04-12T05:52:59.473Z,1.76
2023-04-12T05:55:31.311Z,1.80
2023-04-12T05:57:59.677Z,1.82
2023-04-12T06:00:29.008Z,1.86
2023-04-12T06:02:59.923Z,1.92
2023-04-12T06:05:28.593Z,1.90
2023-04-12T06:08:00.058Z,1.87
2023-04-12T06:10:28.177Z,1.82
2023-04-12T06:12:56.413Z,1.75
2023-04-12T06:15:24.886Z,1.61
2023-04-12T06:17:55.419Z,1.39
2023-04-12T06:20:23.593Z,1.33
2023-04-12T06:22:52.793Z,1.13
2023-04-12T06:25:23.244Z,1.09
2023-04-12T06:27:52.079Z,1.07
2023-04-12T06:30:21.307Z,1.05
2023-04-12T06:32:52.829Z,1.03
2023-04-12T06:35:21.646Z,1.04
2023-04-12T06:37:50.390Z,1.10
2023-04-12T06:40:18.460Z,1.16
2023-04-12T06:42:48.205Z,1.26
2023-04-12T06:45:22.953Z,1.30
2023-04-12T06:47:51.094Z,1.36
2023-04-12T06:50:19.708Z,1.45
2023-04-12T06:52:48.857Z,1.53
2023-04-12T06:55:17.093Z,1.62
2023-04-12T06:57:46.273Z,1.71
2023-04-12T07:00:16.636Z,1.82
2023-04-12T07:02:44.916Z,1.98
2023-04-12T07:05:13.099Z,2.08
2023-04-12T07:07:41.576Z,2.20
2023-04-12T07:10:09.914Z,2.31
2023-04-12T07:12:38.243Z,2.39
2023-04-12T07:15:06.867Z,2.47
2023-04-12T07:17:37.130Z,2.52
2023-04-12T07:20:05.514Z,2.58
2023-04-12T07:22:33.674Z,2.61
2023-04-12T07:25:02.067Z,2.65
2023-04-12T07:27:30.248Z,2.56
2023-04-12T07:29:58.863Z,2.54
2023-04-12T07:32:27.501Z,2.36
2023-04-12T07:34:57.405Z,2.45
2023-04-12T07:37:25.698Z,2.40
2023-04-12T07:39:53.826Z,2.51
2023-04-12T07:42:21.955Z,2.56
2023-04-12T07:44:50.505Z,2.72
2023-04-12T07:47:18.629Z,2.82
2023-04-12T07:49:46.584Z,2.82
2023-04-12T07:52:16.116Z,3.03
2023-04-12T07:54:44.245Z,2.94
2023-04-12T07:57:12.326Z,2.86
2023-04-12T07:59:40.475Z,3.03
2023-04-12T08:02:08.922Z,3.13
2023-04-12T08:04:37.094Z,3.28
2023-04-12T08:07:05.580Z,3.39
2023-04-12T08:09:35.187Z,3.56
2023-04-12T08:12:03.645Z,3.62
2023-04-12T08:14:32.311Z,3.67
2023-04-12T08:17:00.679Z,3.78
2023-04-12T08:19:29.066Z,3.87
2023-04-12T08:21:57.637Z,4.03
2023-04-12T08:24:25.597Z,4.12
2023-04-12T08:26:56.234Z,4.09
2023-04-12T08:29:24.593Z,4.09
2023-04-12T08:31:52.826Z,3.95
2023-04-12T08:34:22.685Z,4.01
2023-04-12T08:36:50.937Z,4.13
2023-04-12T08:39:19.285Z,4.08
2023-04-12T08:41:47.772Z,3.96
2023-04-12T08:44:18.298Z,4.18
2023-04-12T08:46:47.420Z,4.23
2023-04-12T08:49:17.457Z,4.24
2023-04-12T08:51:45.855Z,4.29
2023-04-12T08:54:14.134Z,4.33
2023-04-12T08:56:44.124Z,4.40
2023-04-12T08:59:18.193Z,4.47
2023-04-12T09:01:50.254Z,4.38
2023-04-12T09:04:18.658Z,4.54
2023-04-12T09:06:46.981Z,4.46
2023-04-12T09:09:15.838Z,4.42
2023-04-12T09:11:43.972Z,4.39
2023-04-12T09:14:25.281Z,4.51
2023-04-12T09:16:55.008Z,4.49
2023-04-12T09:19:32.814Z,4.61
2023-04-12T09:22:01.167Z,4.74
2023-04-12T09:24:29.320Z,4.74
2023-04-12T09:27:04.781Z,5.10
2023-04-12T09:29:34.122Z,5.38
2023-04-12T09:32:04.259Z,5.52
2023-04-12T09:34:33.044Z,5.87
2023-04-12T09:37:01.381Z,6.15
2023-04-12T09:39:33.727Z,6.22
2023-04-12T09:42:10.521Z,6.69
2023-04-12T09:44:43.955Z,6.64
2023-04-12T09:47:13.582Z,6.90
2023-04-12T09:49:42.903Z,6.86
2023-04-12T09:52:12.207Z,7.05
2023-04-12T09:54:43.736Z,7.16
2023-04-12T09:57:12.809Z,7.29
2023-04-12T09:59:41.889Z,7.20
2023-04-12T10:02:15.957Z,7.06
2023-04-12T10:04:46.337Z,7.10
2023-04-12T10:07:15.296Z,7.21
2023-04-12T10:09:43.554Z,7.41
2023-04-12T10:12:11.809Z,7.38
2023-04-12T10:14:40.276Z,7.53
2023-04-12T10:17:11.077Z,7.53
2023-04-12T10:19:40.965Z,7.48
2023-04-12T10:22:10.516Z,7.68
2023-04-12T10:24:39.855Z,7.86
2023-04-12T10:27:08.287Z,7.60
2023-04-12T10:29:37.443Z,7.40
2023-04-12T10:32:22.876Z,7.42
2023-04-12T10:34:52.531Z,7.28
2023-04-12T10:37:22.885Z,7.12
2023-04-12T10:39:54.583Z,7.38
2023-04-12T10:42:24.385Z,7.46
2023-04-12T10:44:53.503Z,7.42
2023-04-12T10:47:40.359Z,7.40
2023-04-12T10:50:22.284Z,7.57
2023-04-12T10:53:07.427Z,7.61
2023-04-12T10:55:38.492Z,7.38
2023-04-12T10:58:07.153Z,7.42
2023-04-12T11:00:50.232Z,7.38
2023-04-12T11:03:19.002Z,7.48
2023-04-12T11:05:58.182Z,7.53
2023-04-12T11:08:45.542Z,7.52
2023-04-12T11:11:35.315Z,7.37
2023-04-12T11:14:03.642Z,7.27
2023-04-12T11:16:31.846Z,7.29
2023-04-12T11:19:00.939Z,7.41
2023-04-12T11:21:29.526Z,7.35
2023-04-12T11:23:58.556Z,7.48
2023-04-12T11:26:26.937Z,7.51
2023-04-12T11:28:56.894Z,7.60
2023-04-12T11:31:25.745Z,7.43
2023-04-12T11:33:54.116Z,7.54
2023-04-12T11:36:22.585Z,7.42
2023-04-12T11:38:51.062Z,7.44
2023-04-12T11:41:19.429Z,7.63
2023-04-12T11:43:49.262Z,7.29
2023-04-12T11:46:18.798Z,7.30
2023-04-12T11:48:47.512Z,7.24
2023-04-12T11:51:24.849Z,7.20
2023-04-12T11:53:57.434Z,7.09
2023-04-12T11:56:27.885Z,7.29
2023-04-12T11:58:56.672Z,6.81
2023-04-12T12:01:28.033Z,6.57
2023-04-12T12:03:56.868Z,6.27
2023-04-12T12:06:26.446Z,5.77
2023-04-12T12:08:55.291Z,5.66
2023-04-12T12:11:24.368Z,5.40
2023-04-12T12:13:53.919Z,5.31
2023-04-12T12:16:27.284Z,5.17
2023-04-12T12:18:56.188Z,5.10
2023-04-12T12:21:24.805Z,4.99
2023-04-12T12:23:53.040Z,5.01
2023-04-12T12:26:22.602Z,5.06
2023-04-12T12:28:51.966Z,5.04
2023-04-12T12:31:21.699Z,5.07
2023-04-12T12:33:52.651Z,5.16
2023-04-12T12:36:21.322Z,5.26
2023-04-12T12:38:51.556Z,5.32
2023-04-12T12:41:21.120Z,5.29
2023-04-12T12:43:51.137Z,5.45
2023-04-12T12:46:19.620Z,5.48
2023-04-12T12:48:49.264Z,5.57
2023-04-12T12:51:20.332Z,5.68
2023-04-12T13:49:13.202Z,5.89
2023-04-12T13:51:41.988Z,5.88
2023-04-12T13:54:10.279Z,5.92
2023-04-12T13:56:38.901Z,5.96
2023-04-12T13:59:07.266Z,6.04
2023-04-12T14:01:35.579Z,5.93
2023-04-12T14:04:05.215Z,5.99
2023-04-12T14:06:36.614Z,5.98
2023-04-12T14:09:06.776Z,5.94
2023-04-12T14:11:47.948Z,5.91
2023-04-12T14:14:17.099Z,5.91
2023-04-12T14:16:45.948Z,5.92
2023-04-12T14:19:14.608Z,5.82
2023-04-12T14:21:46.604Z,5.85
2023-04-12T14:24:14.996Z,5.88
2023-04-12T14:26:43.800Z,5.85
2023-04-12T14:29:13.661Z,5.88
2023-04-12T14:31:42.146Z,5.94
2023-04-12T14:34:11.116Z,5.94
2023-04-12T14:36:39.495Z,5.89
2023-04-12T14:39:12.667Z,5.84
2023-04-12T14:41:42.453Z,5.80
2023-04-12T14:44:10.497Z,5.71
2023-04-12T14:46:38.948Z,5.74
2023-04-12T14:49:07.467Z,5.78
2023-04-12T14:51:35.887Z,5.76
2023-04-12T14:54:04.408Z,5.79
2023-04-12T14:56:42.529Z,5.80
2023-04-12T14:59:13.625Z,5.80
2023-04-12T15:01:42.641Z,5.82
2023-04-12T15:04:11.404Z,5.85
2023-04-12T15:06:42.685Z,5.85
2023-04-12T15:09:11.686Z,5.89
2023-04-12T15:11:46.378Z,5.87
2023-04-12T15:14:18.186Z,5.95
2023-04-12T15:16:49.188Z,5.96
2023-04-12T15:19:22.322Z,6.00
2023-04-12T15:21:52.466Z,5.95
2023-04-12T15:24:22.448Z,5.96
2023-04-12T15:26:53.645Z,6.01
2023-04-12T15:29:24.966Z,5.97
2023-04-12T15:31:53.704Z,6.10
2023-04-12T15:34:23.701Z,6.18
2023-04-12T15:36:52.974Z,6.14
2023-04-12T15:39:21.679Z,6.22
2023-04-12T15:41:50.264Z,6.29
2023-04-12T15:44:20.234Z,6.33
2023-04-12T15:47:03.235Z,6.35
2023-04-12T15:49:37.531Z,6.34
2023-04-12T15:52:06.286Z,6.37
2023-04-12T15:54:35.687Z,6.32
2023-04-12T15:57:09.648Z,6.36
2023-04-12T15:59:40.826Z,6.31
2023-04-12T16:02:10.622Z,6.25
2023-04-12T16:04:39.575Z,6.22
2023-04-12T16:07:08.309Z,6.21
2023-04-12T16:09:37.908Z,6.20
2023-04-12T16:12:07.100Z,6.20
2023-04-12T16:14:35.902Z,6.14
2023-04-12T16:17:06.321Z,6.21
2023-04-12T16:19:34.864Z,6.16
2023-04-12T16:22:03.597Z,6.09
2023-04-12T16:24:31.881Z,6.05
2023-04-12T16:27:00.817Z,6.13
2023-04-12T16:29:31.760Z,6.18
2023-04-12T16:32:00.468Z,6.21
2023-04-12T16:34:31.660Z,6.27
2023-04-12T16:36:59.942Z,6.24
2023-04-12T16:39:29.311Z,6.35
2023-04-12T16:41:57.738Z,6.43
2023-04-12T16:44:26.083Z,6.46
2023-04-12T16:46:55.286Z,6.56
2023-04-12T16:49:23.724Z,6.61
2023-04-12T16:51:54.536Z,6.62
2023-04-12T16:54:22.900Z,6.69
2023-04-12T16:56:51.222Z,6.65
2023-04-12T16:59:19.345Z,6.68
2023-04-12T17:01:48.016Z,6.73
2023-04-12T17:04:16.795Z,6.66
2023-04-12T17:06:45.460Z,6.69
2023-04-12T17:09:15.132Z,6.77
2023-04-12T17:11:43.533Z,6.73
2023-04-12T17:14:12.357Z,6.64
2023-04-12T17:16:41.173Z,6.70
2023-04-12T17:19:10.678Z,6.71
2023-04-12T17:21:42.531Z,6.74
2023-04-12T17:24:11.001Z,6.78
2023-04-12T17:26:40.521Z,6.79
2023-04-12T17:29:09.574Z,6.81
2023-04-12T17:31:39.465Z,6.85
2023-04-12T17:34:08.364Z,6.89
2023-04-12T17:36:38.302Z,6.97
2023-04-12T17:39:06.708Z,6.98
2023-04-12T17:41:34.973Z,6.97
2023-04-12T17:44:05.401Z,7.05
2023-04-12T17:46:34.890Z,7.14
2023-04-12T17:49:05.834Z,7.11
2023-04-12T17:51:34.769Z,7.13
2023-04-12T17:54:03.753Z,7.17
2023-04-12T17:56:32.492Z,7.13
2023-04-12T17:59:02.186Z,7.08
2023-04-12T18:01:32.121Z,7.05
2023-04-12T18:04:02.987Z,6.98
2023-04-12T18:06:31.778Z,6.98
2023-04-12T18:09:00.367Z,6.85
2023-04-12T18:11:28.766Z,6.73
2023-04-12T18:13:57.112Z,6.64
2023-04-12T18:16:26.642Z,6.62
2023-04-12T18:18:57.470Z,6.54
2023-04-12T18:21:26.326Z,6.45
2023-04-12T18:23:54.579Z,6.40
2023-04-12T18:26:23.841Z,6.40
2023-04-12T18:28:52.210Z,6.31
2023-04-12T18:31:20.390Z,6.23
2023-04-12T18:33:48.643Z,6.25
2023-04-12T18:36:18.465Z,6.22
2023-04-12T18:38:47.076Z,6.13
2023-04-12T18:41:16.351Z,6.15
2023-04-12T18:43:45.005Z,6.08
2023-04-12T18:46:17.956Z,6.08
2023-04-12T18:48:48.184Z,6.03
2023-04-12T18:51:18.295Z,6.03
2023-04-12T18:53:46.682Z,6.01
2023-04-12T18:56:18.275Z,6.02
2023-04-12T18:58:55.188Z,5.94
2023-04-12T19:01:25.088Z,5.95
2023-04-12T19:03:55.076Z,5.87
2023-04-12T19:06:26.114Z,5.85
2023-04-12T19:08:55.435Z,5.86
2023-04-12T19:11:24.639Z,5.81
2023-04-12T19:13:54.189Z,5.77
2023-04-12T19:16:24.670Z,5.78
2023-04-12T19:18:53.900Z,5.72
2023-04-12T19:21:24.960Z,5.75
2023-04-12T19:23:53.538Z,5.71
2023-04-12T19:26:23.463Z,5.73
2023-04-12T19:28:55.576Z,5.70
2023-04-12T19:31:24.947Z,5.76
2023-04-12T19:33:53.259Z,5.74
2023-04-12T19:36:23.204Z,5.67
2023-04-12T19:38:54.027Z,5.70
2023-04-12T19:41:23.825Z,5.72
2023-04-12T19:43:52.097Z,5.73
2023-04-12T19:46:20.495Z,5.72
2023-04-12T19:48:49.210Z,5.69
2023-04-12T19:51:17.487Z,5.66
2023-04-12T19:53:47.838Z,5.58
2023-04-12T19:56:17.679Z,5.53
2023-04-12T19:58:46.241Z,5.53
2023-04-12T20:01:16.148Z,5.54
2023-04-12T20:03:44.995Z,5.47
2023-04-12T20:06:14.487Z,5.46
2023-04-12T20:08:43.997Z,5.50
2023-04-12T20:11:13.694Z,5.50
2023-04-12T20:13:43.985Z,5.47
2023-04-12T20:16:14.686Z,5.54
2023-04-12T20:18:43.882Z,5.54
2023-04-12T20:21:12.984Z,5.56
2023-04-12T20:23:41.692Z,5.53
2023-04-12T20:26:10.288Z,5.52
2023-04-12T20:28:39.092Z,5.43
2023-04-12T20:31:09.116Z,5.41
2023-04-12T20:33:37.710Z,5.31
2023-04-12T20:36:10.209Z,5.25
2023-04-12T20:38:38.962Z,5.22
2023-04-12T20:41:08.457Z,5.18
2023-04-12T20:43:45.069Z,5.15
2023-04-12T20:46:17.140Z,5.10
2023-04-12T20:48:46.906Z,5.07
2023-04-12T20:51:17.062Z,4.98
2023-04-12T20:53:47.456Z,4.94
2023-04-12T20:56:17.129Z,4.94
2023-04-12T20:58:46.289Z,4.87
2023-04-12T21:01:16.242Z,4.82
2023-04-12T21:03:46.769Z,4.78
2023-04-12T21:06:16.032Z,4.75
2023-04-12T21:08:47.500Z,4.70
2023-04-12T21:11:16.511Z,4.66
2023-04-12T21:13:46.347Z,4.60
2023-04-12T21:16:16.764Z,4.59
2023-04-12T21:18:45.308Z,4.57
2023-04-12T21:21:14.210Z,4.52
2023-04-12T21:23:43.044Z,4.52
2023-04-12T21:26:12.653Z,4.51
2023-04-12T21:28:41.636Z,4.53
2023-04-12T21:31:11.336Z,4.55
2023-04-12T21:33:41.957Z,4.54
2023-04-12T21:36:12.703Z,4.51
2023-04-12T21:38:41.427Z,4.49
2023-04-12T21:41:11.619Z,4.48
2023-04-12T21:43:40.378Z,4.45
2023-04-12T21:46:09.468Z,4.38
2023-04-12T21:48:38.615Z,4.39
2023-04-12T21:51:09.970Z,4.35
2023-04-12T21:53:38.735Z,4.32
2023-04-12T21:56:08.015Z,4.28
2023-04-12T21:58:36.732Z,4.26
2023-04-12T22:01:05.473Z,4.27
2023-04-12T22:03:34.252Z,4.31
2023-04-12T22:06:04.646Z,4.32
2023-04-12T22:08:35.132Z,4.32
2023-04-12T22:11:03.570Z,4.31
2023-04-12T22:13:32.809Z,4.27
2023-04-12T22:16:02.705Z,4.21
2023-04-12T22:18:32.010Z,4.16
2023-04-12T22:21:05.066Z,4.10
2023-04-12T22:23:37.213Z,4.04
2023-04-12T22:26:07.488Z,3.97
2023-04-12T22:28:38.259Z,3.96
2023-04-12T22:31:08.239Z,3.89
2023-04-12T22:33:38.251Z,3.84
2023-04-12T22:36:07.955Z,3.78
2023-04-12T22:38:39.827Z,3.76
2023-04-12T22:41:08.643Z,3.74
2023-04-12T22:43:42.156Z,3.71
2023-04-12T22:46:16.186Z,3.68
2023-04-12T22:48:47.267Z,3.65
2023-04-12T22:51:16.470Z,3.63
2023-04-12T22:53:46.929Z,3.65
2023-04-12T22:56:15.367Z,3.65
2023-04-12T22:58:44.022Z,3.64
2023-04-12T23:01:12.822Z,3.61
2023-04-12T23:03:41.964Z,3.61
2023-04-12T23:06:12.860Z,3.60
2023-04-12T23:08:44.196Z,3.63
2023-04-12T23:11:15.297Z,3.68
2023-04-12T23:13:44.190Z,3.73
2023-04-12T23:16:12.604Z,3.74
2023-04-12T23:18:41.340Z,3.72
2023-04-12T23:21:12.145Z,3.67
2023-04-12T23:23:40.786Z,3.65
2023-04-12T23:26:10.870Z,3.59
2023-04-12T23:28:40.960Z,3.56
2023-04-12T23:31:09.957Z,3.48
2023-04-12T23:33:43.083Z,3.45
2023-04-12T23:36:12.440Z,3.40
2023-04-12T23:38:40.830Z,3.36
2023-04-12T23:41:12.642Z,3.35
2023-04-12T23:43:42.841Z,3.32
2023-04-12T23:46:12.232Z,3.29
2023-04-12T23:48:40.775Z,3.24
2023-04-12T23:51:09.705Z,3.21
2023-04-12T23:53:38.590Z,3.19
2023-04-12T23:56:08.083Z,3.14
2023-04-12T23:58:36.754Z,3.10
